sensor_id;sensor_type;location;lat;lon;timestamp;P1;durP1;ratioP1;P2;durP2;ratioP2
21731;SDS011;11028;51.156;17.130;2023-04-25T00:06:38;4.38;;;1.80;;
21731;SDS011;11028;51.156;17.130;2023-04-25T00:13:57;2.05;;;1.60;;
21731;SDS011;11028;51.156;17.130;2023-04-25T00:21:16;1.77;;;1.63;;
21731;SDS011;11028;51.156;17.130;2023-04-25T00:28:36;4.00;;;1.60;;
21731;SDS011;11028;51.156;17.130;2023-04-25T00:35:55;4.78;;;1.92;;
21731;SDS011;11028;51.156;17.130;2023-04-25T00:43:13;4.35;;;1.30;;
21731;SDS011;11028;51.156;17.130;2023-04-25T00:50:33;2.50;;;1.85;;
21731;SDS011;11028;51.156;17.130;2023-04-25T00:57:52;2.80;;;1.52;;
21731;SDS011;11028;51.156;17.130;2023-04-25T01:05:10;2.03;;;1.60;;
21731;SDS011;11028;51.156;17.130;2023-04-25T01:12:31;4.13;;;1.70;;
21731;SDS011;11028;51.156;17.130;2023-04-25T01:19:50;2.00;;;1.38;;
21731;SDS011;11028;51.156;17.130;2023-04-25T01:27:10;2.15;;;1.48;;
21731;SDS011;11028;51.156;17.130;2023-04-25T01:34:29;2.45;;;1.40;;
21731;SDS011;11028;51.156;17.130;2023-04-25T01:41:47;2.83;;;1.38;;
21731;SDS011;11028;51.156;17.130;2023-04-25T01:49:07;3.72;;;1.38;;
21731;SDS011;11028;51.156;17.130;2023-04-25T01:56:29;3.13;;;1.60;;
21731;SDS011;11028;51.156;17.130;2023-04-25T02:03:50;3.53;;;1.98;;
21731;SDS011;11028;51.156;17.130;2023-04-25T02:11:16;4.15;;;1.95;;
21731;SDS011;11028;51.156;17.130;2023-04-25T02:18:49;3.80;;;2.45;;
21731;SDS011;11028;51.156;17.130;2023-04-25T02:26:09;3.03;;;2.63;;
21731;SDS011;11028;51.156;17.130;2023-04-25T02:33:29;12.00;;;3.08;;
21731;SDS011;11028;51.156;17.130;2023-04-25T02:40:47;5.07;;;3.05;;
21731;SDS011;11028;51.156;17.130;2023-04-25T02:48:07;4.13;;;2.83;;
21731;SDS011;11028;51.156;17.130;2023-04-25T02:55:27;11.63;;;3.42;;
21731;SDS011;11028;51.156;17.130;2023-04-25T03:02:46;10.07;;;3.60;;
21731;SDS011;11028;51.156;17.130;2023-04-25T03:10:05;5.10;;;3.45;;
21731;SDS011;11028;51.156;17.130;2023-04-25T03:17:27;5.18;;;3.40;;
21731;SDS011;11028;51.156;17.130;2023-04-25T03:24:45;6.88;;;3.85;;
21731;SDS011;11028;51.156;17.130;2023-04-25T03:32:03;5.43;;;3.75;;
21731;SDS011;11028;51.156;17.130;2023-04-25T03:39:23;5.75;;;3.15;;
21731;SDS011;11028;51.156;17.130;2023-04-25T03:46:45;13.40;;;3.88;;
21731;SDS011;11028;51.156;17.130;2023-04-25T03:54:04;8.05;;;3.53;;
21731;SDS011;11028;51.156;17.130;2023-04-25T04:01:42;6.60;;;3.80;;
21731;SDS011;11028;51.156;17.130;2023-04-25T04:09:00;5.60;;;3.80;;
21731;SDS011;11028;51.156;17.130;2023-04-25T04:16:22;7.22;;;4.07;;
21731;SDS011;11028;51.156;17.130;2023-04-25T04:23:43;8.05;;;4.07;;
21731;SDS011;11028;51.156;17.130;2023-04-25T04:31:01;7.75;;;3.70;;
21731;SDS011;11028;51.156;17.130;2023-04-25T04:38:20;10.13;;;4.53;;
21731;SDS011;11028;51.156;17.130;2023-04-25T04:45:42;6.85;;;4.22;;
21731;SDS011;11028;51.156;17.130;2023-04-25T04:53:13;8.27;;;4.32;;
21731;SDS011;11028;51.156;17.130;2023-04-25T05:01:11;10.52;;;4.35;;
21731;SDS011;11028;51.156;17.130;2023-04-25T05:08:51;7.65;;;4.43;;
21731;SDS011;11028;51.156;17.130;2023-04-25T05:16:50;10.20;;;4.68;;
21731;SDS011;11028;51.156;17.130;2023-04-25T05:24:35;9.98;;;4.57;;
21731;SDS011;11028;51.156;17.130;2023-04-25T05:32:18;10.13;;;4.63;;
21731;SDS011;11028;51.156;17.130;2023-04-25T05:39:38;9.48;;;4.18;;
21731;SDS011;11028;51.156;17.130;2023-04-25T05:47:18;6.22;;;4.00;;
21731;SDS011;11028;51.156;17.130;2023-04-25T05:54:50;15.35;;;4.30;;
21731;SDS011;11028;51.156;17.130;2023-04-25T06:02:08;9.10;;;4.57;;
21731;SDS011;11028;51.156;17.130;2023-04-25T06:09:29;7.22;;;4.25;;
21731;SDS011;11028;51.156;17.130;2023-04-25T06:16:47;11.65;;;4.85;;
21731;SDS011;11028;51.156;17.130;2023-04-25T06:24:06;5.80;;;4.03;;
21731;SDS011;11028;51.156;17.130;2023-04-25T06:31:26;6.25;;;3.60;;
21731;SDS011;11028;51.156;17.130;2023-04-25T06:38:46;7.68;;;3.83;;
21731;SDS011;11028;51.156;17.130;2023-04-25T06:46:04;7.63;;;3.88;;
21731;SDS011;11028;51.156;17.130;2023-04-25T06:53:32;10.15;;;3.78;;
21731;SDS011;11028;51.156;17.130;2023-04-25T07:00:53;6.20;;;3.78;;
21731;SDS011;11028;51.156;17.130;2023-04-25T07:08:13;6.10;;;3.38;;
21731;SDS011;11028;51.156;17.130;2023-04-25T07:15:34;7.15;;;3.55;;
21731;SDS011;11028;51.156;17.130;2023-04-25T07:22:53;4.47;;;3.47;;
21731;SDS011;11028;51.156;17.130;2023-04-25T07:30:12;6.45;;;3.22;;
21731;SDS011;11028;51.156;17.130;2023-04-25T07:37:32;6.85;;;3.67;;
21731;SDS011;11028;51.156;17.130;2023-04-25T07:45:11;8.60;;;3.25;;
21731;SDS011;11028;51.156;17.130;2023-04-25T07:52:29;12.15;;;4.47;;
21731;SDS011;11028;51.156;17.130;2023-04-25T07:59:58;4.95;;;2.67;;
21731;SDS011;11028;51.156;17.130;2023-04-25T08:07:18;4.97;;;2.60;;
21731;SDS011;11028;51.156;17.130;2023-04-25T08:14:42;7.18;;;3.08;;
21731;SDS011;11028;51.156;17.130;2023-04-25T08:22:02;11.60;;;3.90;;
21731;SDS011;11028;51.156;17.130;2023-04-25T08:29:32;7.85;;;3.40;;
21731;SDS011;11028;51.156;17.130;2023-04-25T08:36:50;5.40;;;4.10;;
21731;SDS011;11028;51.156;17.130;2023-04-25T08:44:31;6.32;;;3.85;;
21731;SDS011;11028;51.156;17.130;2023-04-25T08:51:51;12.40;;;3.95;;
21731;SDS011;11028;51.156;17.130;2023-04-25T08:59:12;5.57;;;3.95;;
21731;SDS011;11028;51.156;17.130;2023-04-25T09:06:34;8.40;;;4.40;;
21731;SDS011;11028;51.156;17.130;2023-04-25T09:13:54;9.82;;;4.63;;
21731;SDS011;11028;51.156;17.130;2023-04-25T09:21:42;5.30;;;3.80;;
21731;SDS011;11028;51.156;17.130;2023-04-25T09:29:04;8.45;;;4.90;;
21731;SDS011;11028;51.156;17.130;2023-04-25T09:36:27;7.28;;;4.57;;
21731;SDS011;11028;51.156;17.130;2023-04-25T09:44:09;4.75;;;3.83;;
21731;SDS011;11028;51.156;17.130;2023-04-25T09:51:32;7.60;;;4.38;;
21731;SDS011;11028;51.156;17.130;2023-04-25T09:58:51;6.82;;;4.18;;
21731;SDS011;11028;51.156;17.130;2023-04-25T10:06:14;7.28;;;4.55;;
21731;SDS011;11028;51.156;17.130;2023-04-25T10:13:38;6.50;;;3.17;;
21731;SDS011;11028;51.156;17.130;2023-04-25T10:20:59;7.13;;;4.25;;
21731;SDS011;11028;51.156;17.130;2023-04-25T10:28:20;6.30;;;3.88;;
21731;SDS011;11028;51.156;17.130;2023-04-25T10:35:38;5.00;;;3.30;;
21731;SDS011;11028;51.156;17.130;2023-04-25T10:43:33;3.72;;;2.65;;
21731;SDS011;11028;51.156;17.130;2023-04-25T10:51:08;4.80;;;2.63;;
21731;SDS011;11028;51.156;17.130;2023-04-25T10:58:27;4.00;;;2.92;;
21731;SDS011;11028;51.156;17.130;2023-04-25T11:05:45;3.47;;;2.30;;
21731;SDS011;11028;51.156;17.130;2023-04-25T11:13:15;3.42;;;2.05;;
21731;SDS011;11028;51.156;17.130;2023-04-25T11:20:34;6.57;;;3.90;;
21731;SDS011;11028;51.156;17.130;2023-04-25T11:27:53;5.65;;;2.63;;
21731;SDS011;11028;51.156;17.130;2023-04-25T11:35:15;7.43;;;3.97;;
21731;SDS011;11028;51.156;17.130;2023-04-25T11:42:34;3.55;;;2.20;;
21731;SDS011;11028;51.156;17.130;2023-04-25T11:49:52;1.70;;;1.30;;
21731;SDS011;11028;51.156;17.130;2023-04-25T11:57:12;3.17;;;2.25;;
21731;SDS011;11028;51.156;17.130;2023-04-25T12:04:31;1.90;;;1.73;;
21731;SDS011;11028;51.156;17.130;2023-04-25T12:11:52;2.05;;;1.45;;
21731;SDS011;11028;51.156;17.130;2023-04-25T12:19:14;3.55;;;2.10;;
21731;SDS011;11028;51.156;17.130;2023-04-25T12:26:45;15.70;;;6.38;;
21731;SDS011;11028;51.156;17.130;2023-04-25T12:34:04;2.40;;;2.17;;
21731;SDS011;11028;51.156;17.130;2023-04-25T12:41:24;1.75;;;1.27;;
21731;SDS011;11028;51.156;17.130;2023-04-25T12:48:42;2.88;;;1.60;;
21731;SDS011;11028;51.156;17.130;2023-04-25T12:56:01;2.00;;;1.40;;
21731;SDS011;11028;51.156;17.130;2023-04-25T13:03:21;2.92;;;1.60;;
21731;SDS011;11028;51.156;17.130;2023-04-25T13:10:39;5.95;;;1.70;;
21731;SDS011;11028;51.156;17.130;2023-04-25T13:17:58;3.88;;;1.58;;
21731;SDS011;11028;51.156;17.130;2023-04-25T13:25:18;2.28;;;1.70;;
21731;SDS011;11028;51.156;17.130;2023-04-25T13:32:38;3.70;;;1.80;;
21731;SDS011;11028;51.156;17.130;2023-04-25T13:39:58;3.47;;;1.85;;
21731;SDS011;11028;51.156;17.130;2023-04-25T13:47:19;4.88;;;1.90;;
21731;SDS011;11028;51.156;17.130;2023-04-25T13:54:37;3.25;;;2.00;;
21731;SDS011;11028;51.156;17.130;2023-04-25T14:01:55;2.83;;;1.90;;
21731;SDS011;11028;51.156;17.130;2023-04-25T14:09:15;4.20;;;2.25;;
21731;SDS011;11028;51.156;17.130;2023-04-25T14:16:33;3.00;;;1.52;;
21731;SDS011;11028;51.156;17.130;2023-04-25T14:23:52;2.33;;;1.48;;
21731;SDS011;11028;51.156;17.130;2023-04-25T14:31:12;3.95;;;1.70;;
21731;SDS011;11028;51.156;17.130;2023-04-25T14:38:30;3.17;;;2.00;;
21731;SDS011;11028;51.156;17.130;2023-04-25T14:45:49;3.55;;;2.20;;
21731;SDS011;11028;51.156;17.130;2023-04-25T14:53:09;4.97;;;2.20;;
21731;SDS011;11028;51.156;17.130;2023-04-25T15:00:28;4.93;;;2.22;;
21731;SDS011;11028;51.156;17.130;2023-04-25T15:07:48;4.22;;;1.85;;
21731;SDS011;11028;51.156;17.130;2023-04-25T15:15:09;7.95;;;3.00;;
21731;SDS011;11028;51.156;17.130;2023-04-25T15:22:35;3.17;;;1.60;;
21731;SDS011;11028;51.156;17.130;2023-04-25T15:29:54;3.60;;;1.90;;
21731;SDS011;11028;51.156;17.130;2023-04-25T15:37:14;2.28;;;1.80;;
21731;SDS011;11028;51.156;17.130;2023-04-25T15:44:32;3.42;;;2.05;;
21731;SDS011;11028;51.156;17.130;2023-04-25T15:51:51;5.22;;;3.00;;
21731;SDS011;11028;51.156;17.130;2023-04-25T15:59:11;7.28;;;3.22;;
21731;SDS011;11028;51.156;17.130;2023-04-25T16:06:30;3.25;;;2.58;;
21731;SDS011;11028;51.156;17.130;2023-04-25T16:13:48;5.25;;;2.55;;
21731;SDS011;11028;51.156;17.130;2023-04-25T16:21:08;5.28;;;2.55;;
21731;SDS011;11028;51.156;17.130;2023-04-25T16:28:32;4.25;;;2.20;;
21731;SDS011;11028;51.156;17.130;2023-04-25T16:35:51;2.63;;;1.80;;
21731;SDS011;11028;51.156;17.130;2023-04-25T16:43:11;2.55;;;1.95;;
21731;SDS011;11028;51.156;17.130;2023-04-25T16:50:30;1.85;;;1.73;;
21731;SDS011;11028;51.156;17.130;2023-04-25T16:57:48;3.95;;;2.30;;
21731;SDS011;11028;51.156;17.130;2023-04-25T17:05:09;2.80;;;2.05;;
21731;SDS011;11028;51.156;17.130;2023-04-25T17:12:27;4.32;;;1.60;;
21731;SDS011;11028;51.156;17.130;2023-04-25T17:19:46;6.13;;;2.65;;
21731;SDS011;11028;51.156;17.130;2023-04-25T17:27:06;4.90;;;2.63;;
21731;SDS011;11028;51.156;17.130;2023-04-25T17:34:24;5.72;;;3.22;;
21731;SDS011;11028;51.156;17.130;2023-04-25T17:41:42;4.35;;;2.65;;
21731;SDS011;11028;51.156;17.130;2023-04-25T17:49:02;8.32;;;2.40;;
21731;SDS011;11028;51.156;17.130;2023-04-25T17:56:21;7.35;;;3.30;;
21731;SDS011;11028;51.156;17.130;2023-04-25T18:03:43;14.95;;;4.40;;
21731;SDS011;11028;51.156;17.130;2023-04-25T18:11:06;10.10;;;3.83;;
21731;SDS011;11028;51.156;17.130;2023-04-25T18:18:24;11.88;;;4.47;;
21731;SDS011;11028;51.156;17.130;2023-04-25T18:25:48;12.02;;;4.35;;
21731;SDS011;11028;51.156;17.130;2023-04-25T18:33:09;9.93;;;4.78;;
21731;SDS011;11028;51.156;17.130;2023-04-25T18:40:27;17.73;;;4.97;;
21731;SDS011;11028;51.156;17.130;2023-04-25T18:47:45;12.23;;;4.70;;
21731;SDS011;11028;51.156;17.130;2023-04-25T18:55:06;12.68;;;4.50;;
21731;SDS011;11028;51.156;17.130;2023-04-25T19:02:24;13.15;;;4.30;;
21731;SDS011;11028;51.156;17.130;2023-04-25T19:09:43;9.43;;;4.72;;
21731;SDS011;11028;51.156;17.130;2023-04-25T19:17:03;10.68;;;4.35;;
21731;SDS011;11028;51.156;17.130;2023-04-25T19:24:21;21.48;;;6.60;;
21731;SDS011;11028;51.156;17.130;2023-04-25T19:31:40;10.35;;;4.57;;
21731;SDS011;11028;51.156;17.130;2023-04-25T19:39:01;9.35;;;4.78;;
21731;SDS011;11028;51.156;17.130;2023-04-25T19:46:20;12.35;;;4.90;;
21731;SDS011;11028;51.156;17.130;2023-04-25T19:53:39;14.50;;;4.40;;
21731;SDS011;11028;51.156;17.130;2023-04-25T20:00:58;13.77;;;4.40;;
21731;SDS011;11028;51.156;17.130;2023-04-25T20:08:17;11.68;;;4.32;;
21731;SDS011;11028;51.156;17.130;2023-04-25T20:15:35;12.70;;;4.82;;
21731;SDS011;11028;51.156;17.130;2023-04-25T20:22:55;13.40;;;5.40;;
21731;SDS011;11028;51.156;17.130;2023-04-25T20:30:14;25.45;;;7.90;;
21731;SDS011;11028;51.156;17.130;2023-04-25T20:37:32;11.10;;;4.32;;
21731;SDS011;11028;51.156;17.130;2023-04-25T20:44:52;12.90;;;4.35;;
21731;SDS011;11028;51.156;17.130;2023-04-25T20:52:11;17.27;;;4.50;;
21731;SDS011;11028;51.156;17.130;2023-04-25T20:59:29;9.77;;;3.63;;
21731;SDS011;11028;51.156;17.130;2023-04-25T21:06:49;8.15;;;4.70;;
21731;SDS011;11028;51.156;17.130;2023-04-25T21:14:08;10.18;;;4.10;;
21731;SDS011;11028;51.156;17.130;2023-04-25T21:21:27;12.25;;;3.83;;
21731;SDS011;11028;51.156;17.130;2023-04-25T21:28:47;15.90;;;4.53;;
21731;SDS011;11028;51.156;17.130;2023-04-25T21:36:05;17.50;;;4.28;;
21731;SDS011;11028;51.156;17.130;2023-04-25T21:43:24;9.07;;;3.67;;
21731;SDS011;11028;51.156;17.130;2023-04-25T21:50:44;10.48;;;4.07;;
21731;SDS011;11028;51.156;17.130;2023-04-25T21:58:03;13.68;;;3.92;;
21731;SDS011;11028;51.156;17.130;2023-04-25T22:05:22;11.52;;;5.40;;
21731;SDS011;11028;51.156;17.130;2023-04-25T22:12:43;12.65;;;5.07;;
21731;SDS011;11028;51.156;17.130;2023-04-25T22:20:07;11.57;;;4.60;;
21731;SDS011;11028;51.156;17.130;2023-04-25T22:27:29;10.55;;;4.25;;
21731;SDS011;11028;51.156;17.130;2023-04-25T22:34:50;13.52;;;4.97;;
21731;SDS011;11028;51.156;17.130;2023-04-25T22:42:08;18.02;;;4.53;;
21731;SDS011;11028;51.156;17.130;2023-04-25T22:49:27;12.20;;;4.25;;
21731;SDS011;11028;51.156;17.130;2023-04-25T22:56:47;10.82;;;4.47;;
21731;SDS011;11028;51.156;17.130;2023-04-25T23:04:06;16.17;;;5.47;;
21731;SDS011;11028;51.156;17.130;2023-04-25T23:11:26;10.05;;;4.50;;
21731;SDS011;11028;51.156;17.130;2023-04-25T23:18:45;13.85;;;5.07;;
21731;SDS011;11028;51.156;17.130;2023-04-25T23:26:07;10.93;;;4.78;;
21731;SDS011;11028;51.156;17.130;2023-04-25T23:33:25;12.65;;;4.80;;
21731;SDS011;11028;51.156;17.130;2023-04-25T23:40:45;13.00;;;4.43;;
21731;SDS011;11028;51.156;17.130;2023-04-25T23:48:04;10.68;;;4.55;;
21731;SDS011;11028;51.156;17.130;2023-04-25T23:55:22;16.27;;;5.25;;
